LCRA/AKT METAR and TAF weather

Enter ICAO airport designator
Station Type Date Time Source
LCRA METAR 2021/01/17 18:50 UTC NOAA

LCRA 171850Z 28020G31KT 9999 FEW030 BKN045 13/05 Q1009 NOSIG RMK BLU BLU


Station Type Date Time Source
LCRA Decoded METAR 2021/01/17 18:50 UTC NOAA

Akrotiri, Cyprus (LCRA) 34-35N 032-59E 0M
Jan 17, 2021 - 01:50 PM EST / 2021.01.17 1850 UTC
Wind: from the W (280 degrees) at 23 MPH (20 KT) gusting to 36 MPH (31 KT):0
Visibility: greater than 7 mile(s):0
Sky conditions: mostly cloudy
Temperature: 55 F (13 C)
Dew Point: 41 F (5 C)
Relative Humidity: 58%
Pressure (altimeter): 29.80 in. Hg (1009 hPa)
ob: LCRA 171850Z 28020G31KT 9999 FEW030 BKN045 13/05 Q1009 NOSIG RMK BLU BLU
cycle: 19

Station Type Date Time Source
LCRA TAF 2021/01/17 18:39 UTC NOAA

TAF LCRA 171635Z 1718/1812 28015G25KT 9999 SCT035
TEMPO 1718/1724 29025G35KT

Example: see airport list